Time;durP1;ratioP1;P1;durP2;ratioP2;P2;SDS_P1;SDS_P2;PMS_P1;PMS_P2;Temp;Humidity;BMP_temperature;BMP_pressure;BME280_temperature;BME280_humidity;BME280_pressure;Samples;Min_cycle;Max_cycle;Signal;HPM_P1;HPM_P2
2023/08/29 00:00:05;;;;;;;9.20;8.30;;;;;;;15.75;69.37;100558.28;679054;29;1401;-84
2023/08/29 00:00:34;;;;;;;8.57;7.78;;;;;;;15.72;69.60;100555.66;679472;29;1464;-84
2023/08/29 00:00:55;;;;;;;8.73;7.93;;;;;;;15.72;69.45;100550.38;679427;29;1446;-84
2023/08/29 00:01:17;;;;;;;9.57;8.57;;;;;;;15.72;69.08;100557.41;684116;28;1333;-84
2023/08/29 00:01:37;;;;;;;10.20;8.73;;;;;;;15.71;69.53;100550.38;683829;28;969;-84
2023/08/29 00:01:58;;;;;;;10.03;8.50;;;;;;;15.68;69.52;100548.59;681127;29;1784;-84
2023/08/29 00:02:19;;;;;;;8.60;7.70;;;;;;;15.67;69.45;100548.63;682474;29;1140;-84
2023/08/29 00:02:42;;;;;;;8.30;7.50;;;;;;;15.68;69.54;100537.22;685134;28;1106;-84
2023/08/29 00:03:03;;;;;;;8.90;7.85;;;;;;;15.68;69.59;100556.50;684187;28;1268;-84
2023/08/29 00:03:27;;;;;;;14.60;8.23;;;;;;;15.69;69.51;100549.50;682415;29;1282;-83
2023/08/29 00:03:49;;;;;;;17.33;8.15;;;;;;;15.68;69.22;100553.00;680525;29;1336;-83
2023/08/29 00:04:09;;;;;;;15.75;7.55;;;;;;;15.69;69.50;100549.50;681796;29;1347;-84
2023/08/29 00:04:30;;;;;;;11.30;7.90;;;;;;;15.68;69.54;100547.75;679677;29;1987;-84
2023/08/29 00:04:50;;;;;;;12.27;8.23;;;;;;;15.68;69.41;100548.59;678861;29;1538;-84
2023/08/29 00:05:12;;;;;;;13.10;8.75;;;;;;;15.67;69.48;100546.00;680968;29;1230;-83
2023/08/29 00:05:33;;;;;;;11.00;9.35;;;;;;;15.68;69.38;100547.75;682947;28;1191;-84
2023/08/29 00:06:04;;;;;;;10.18;9.10;;;;;;;15.66;69.47;100549.50;681455;29;1197;-84
2023/08/29 00:06:24;;;;;;;9.30;8.25;;;;;;;15.68;69.42;100542.50;681104;29;1063;-84
2023/08/29 00:06:45;;;;;;;8.80;7.90;;;;;;;15.68;69.50;100542.50;682505;29;1192;-83
2023/08/29 00:07:06;;;;;;;9.20;8.30;;;;;;;15.66;69.44;100545.09;682284;29;1069;-84
2023/08/29 00:07:26;;;;;;;9.60;8.60;;;;;;;15.65;69.28;100539.81;679778;29;1215;-84
2023/08/29 00:07:47;;;;;;;11.23;9.00;;;;;;;15.68;69.61;100545.13;682528;29;1034;-84
2023/08/29 00:08:07;;;;;;;12.33;9.60;;;;;;;15.66;69.27;100544.25;683931;28;1094;-84
2023/08/29 00:08:28;;;;;;;12.77;10.15;;;;;;;15.70;69.48;100549.50;687420;28;1777;-84
2023/08/29 00:08:49;;;;;;;11.82;10.30;;;;;;;15.65;69.33;100542.47;684945;28;1243;-84
2023/08/29 00:09:10;;;;;;;10.93;9.82;;;;;;;15.69;69.53;100547.75;683495;28;1383;-84
2023/08/29 00:09:30;;;;;;;11.13;9.70;;;;;;;15.65;69.42;100542.47;686540;28;1386;-84
2023/08/29 00:09:52;;;;;;;10.77;9.32;;;;;;;15.64;69.39;100544.22;684839;28;1211;-84
2023/08/29 00:10:13;;;;;;;11.88;9.30;;;;;;;15.68;69.45;100553.00;683591;28;1205;-85
2023/08/29 00:10:34;;;;;;;10.05;8.90;;;;;;;15.67;69.21;100546.00;682218;28;1878;-84
2023/08/29 00:10:58;;;;;;;11.40;9.48;;;;;;;15.66;69.45;100545.09;686971;28;1112;-84
2023/08/29 00:11:19;;;;;;;12.55;10.10;;;;;;;15.67;69.63;100552.13;684897;28;1530;-84
2023/08/29 00:11:40;;;;;;;13.50;10.20;;;;;;;15.67;69.51;100546.00;684011;28;1656;-85
2023/08/29 00:12:00;;;;;;;13.70;10.23;;;;;;;15.66;69.67;100547.72;682292;29;1181;-84
2023/08/29 00:12:21;;;;;;;12.77;10.20;;;;;;;15.69;69.53;100555.66;682284;29;1779;-84
2023/08/29 00:12:42;;;;;;;11.43;10.23;;;;;;;15.66;69.73;100546.88;681841;29;1221;-85
2023/08/29 00:13:03;;;;;;;11.63;10.43;;;;;;;15.69;69.79;100554.75;684461;28;1326;-83
2023/08/29 00:13:24;;;;;;;12.50;10.75;;;;;;;15.69;69.64;100555.66;682452;28;1315;-84
2023/08/29 00:13:45;;;;;;;13.23;11.07;;;;;;;15.63;69.80;100545.97;682193;28;1475;-84
2023/08/29 00:14:05;;;;;;;12.10;10.80;;;;;;;15.63;69.76;100539.84;685292;28;1544;-84
2023/08/29 00:14:26;;;;;;;11.67;10.47;;;;;;;15.66;69.78;100546.88;680869;29;1085;-83
2023/08/29 00:14:47;;;;;;;11.35;10.15;;;;;;;15.69;69.74;100544.25;679923;29;1231;-85
2023/08/29 00:15:09;;;;;;;10.87;9.77;;;;;;;15.69;69.77;100560.91;679839;29;1713;-84
2023/08/29 00:15:30;;;;;;;10.63;9.63;;;;;;;15.65;69.74;100542.47;682382;28;1374;-84
2023/08/29 00:15:52;;;;;;;11.10;9.98;;;;;;;15.63;69.83;100535.44;683290;28;1243;-84
2023/08/29 00:16:16;;;;;;;11.20;10.10;;;;;;;15.69;69.56;100546.88;681946;28;1652;-84
2023/08/29 00:16:36;;;;;;;11.88;10.57;;;;;;;15.65;69.64;100543.34;679893;29;996;-84
2023/08/29 00:16:57;;;;;;;11.67;10.47;;;;;;;15.61;69.75;100534.56;684811;28;1182;-84
2023/08/29 00:17:18;;;;;;;12.90;10.43;;;;;;;15.67;69.89;100546.84;689873;28;1616;-84
2023/08/29 00:17:39;;;;;;;13.18;10.40;;;;;;;15.61;69.78;100533.72;687701;28;1062;-83
2023/08/29 00:18:00;;;;;;;14.77;10.50;;;;;;;15.61;69.73;100537.19;681773;28;1309;-83
2023/08/29 00:18:21;;;;;;;11.90;10.30;;;;;;;15.61;69.97;100537.19;682121;29;1347;-84
2023/08/29 00:18:43;;;;;;;11.52;10.40;;;;;;;15.63;69.77;100535.44;679714;29;1068;-84
2023/08/29 00:19:04;;;;;;;11.38;10.38;;;;;;;15.62;69.81;100536.31;681075;28;1267;-84
2023/08/29 00:19:24;;;;;;;11.88;10.50;;;;;;;15.58;69.74;100521.44;685025;28;1091;-83
2023/08/29 00:19:45;;;;;;;14.33;11.07;;;;;;;15.62;69.79;100528.44;687843;28;752;-84
2023/08/29 00:20:06;;;;;;;13.90;10.95;;;;;;;15.61;69.84;100528.44;686247;28;1194;-84
2023/08/29 00:20:26;;;;;;;12.70;11.27;;;;;;;15.58;69.84;100526.69;686993;28;1241;-84
2023/08/29 00:20:48;;;;;;;11.80;10.70;;;;;;;15.61;69.82;100529.31;687857;28;1064;-84
2023/08/29 00:21:09;;;;;;;12.05;10.85;;;;;;;15.59;69.84;100528.44;683080;28;1248;-84
2023/08/29 00:21:30;;;;;;;12.05;10.85;;;;;;;15.59;69.96;100528.44;681959;29;1720;-84
2023/08/29 00:21:51;;;;;;;13.37;11.73;;;;;;;15.57;69.82;100519.66;682421;29;993;-84
2023/08/29 00:22:11;;;;;;;15.82;12.15;;;;;;;15.57;69.89;100514.41;686040;28;1239;-84
2023/08/29 00:22:32;;;;;;;15.70;11.80;;;;;;;15.58;69.76;100523.16;686720;28;1886;-85
2023/08/29 00:22:53;;;;;;;14.70;11.40;;;;;;;15.58;69.85;100525.78;684997;28;1054;-85
2023/08/29 00:23:13;;;;;;;15.37;11.80;;;;;;;15.56;69.86;100523.16;687867;28;1130;-84
2023/08/29 00:23:34;;;;;;;15.48;12.02;;;;;;;15.53;70.10;100517.88;685070;28;1862;-84
2023/08/29 00:23:54;;;;;;;15.20;12.60;;;;;;;15.53;70.01;100515.25;685047;28;1093;-85
2023/08/29 00:24:15;;;;;;;15.85;12.43;;;;;;;15.55;69.98;100517.91;684286;28;1250;-84
2023/08/29 00:24:35;;;;;;;15.60;12.10;;;;;;;15.56;69.83;100522.28;687705;28;1914;-84
2023/08/29 00:24:57;;;;;;;16.90;11.70;;;;;;;15.56;70.13;100523.16;681339;29;1200;-84
2023/08/29 00:25:18;;;;;;;13.75;11.38;;;;;;;15.54;69.84;100522.28;687053;28;1276;-84
2023/08/29 00:25:39;;;;;;;13.13;11.45;;;;;;;15.52;69.84;100516.13;684471;28;1104;-84
2023/08/29 00:25:59;;;;;;;12.50;11.20;;;;;;;15.54;69.98;100514.38;684745;28;1759;-84
2023/08/29 00:26:20;;;;;;;12.60;11.30;;;;;;;15.52;70.04;100516.13;687722;28;1246;-84
2023/08/29 00:26:41;;;;;;;13.43;11.98;;;;;;;15.53;69.97;100512.63;687509;28;1316;-84
2023/08/29 00:27:02;;;;;;;15.80;11.90;;;;;;;15.53;70.04;100517.00;684765;28;1185;-85
2023/08/29 00:27:23;;;;;;;16.05;12.25;;;;;;;15.53;70.10;100517.00;679870;29;1283;-84
2023/08/29 00:27:44;;;;;;;15.75;11.70;;;;;;;15.48;70.05;100519.63;679853;28;1267;-84
2023/08/29 00:28:05;;;;;;;13.33;11.97;;;;;;;15.51;69.94;100524.00;681998;28;1181;-84
2023/08/29 00:28:25;;;;;;;13.15;11.85;;;;;;;15.49;69.98;100516.13;684856;28;1156;-84
2023/08/29 00:28:46;;;;;;;13.10;11.80;;;;;;;15.52;69.95;100518.78;682392;29;1510;-83
2023/08/29 00:29:07;;;;;;;12.48;11.27;;;;;;;15.45;69.96;100510.00;684543;28;1832;-84
2023/08/29 00:29:28;;;;;;;12.43;11.23;;;;;;;15.48;70.09;100514.34;685066;28;1240;-84
2023/08/29 00:29:48;;;;;;;12.88;11.57;;;;;;;15.52;70.08;100521.41;686791;28;1187;-83
2023/08/29 00:30:09;;;;;;;13.05;11.75;;;;;;;15.48;70.20;100524.88;683599;28;1093;-83
2023/08/29 00:30:37;;;;;;;16.55;11.18;;;;;;;15.48;69.92;100530.13;690455;28;1049;-84
2023/08/29 00:30:57;;;;;;;17.52;11.15;;;;;;;15.46;70.01;100521.38;693105;28;1146;-84
2023/08/29 00:31:18;;;;;;;17.75;11.30;;;;;;;15.46;70.11;100521.38;686293;28;1306;-83
2023/08/29 00:31:38;;;;;;;12.90;11.07;;;;;;;15.48;70.23;100524.88;683748;28;1516;-83
2023/08/29 00:31:59;;;;;;;11.60;10.45;;;;;;;15.46;70.22;100526.63;682134;29;1189;-84
2023/08/29 00:32:20;;;;;;;12.00;10.80;;;;;;;15.47;70.22;100537.16;682059;28;1232;-84
2023/08/29 00:32:40;;;;;;;13.23;11.60;;;;;;;15.47;70.08;100538.91;682425;29;1117;-84
2023/08/29 00:33:01;;;;;;;14.02;11.98;;;;;;;15.45;70.17;100530.13;687287;28;1719;-84
2023/08/29 00:33:22;;;;;;;13.98;12.20;;;;;;;15.49;70.14;100542.44;684995;28;1423;-84
2023/08/29 00:33:43;;;;;;;13.63;11.77;;;;;;;15.45;70.06;100535.38;687176;28;1883;-85
2023/08/29 00:34:03;;;;;;;13.35;11.57;;;;;;;15.45;70.25;100535.38;682444;28;1626;-85
2023/08/29 00:34:25;;;;;;;14.18;12.07;;;;;;;15.45;70.04;100538.03;685223;28;1021;-84
2023/08/29 00:34:46;;;;;;;15.60;12.18;;;;;;;15.42;70.29;100535.41;687430;28;1428;-84
2023/08/29 00:35:07;;;;;;;15.82;12.50;;;;;;;15.43;70.25;100537.16;684864;28;1104;-84
2023/08/29 00:35:27;;;;;;;15.95;12.68;;;;;;;15.42;70.12;100541.50;682278;29;1192;-84
2023/08/29 00:35:48;;;;;;;15.20;13.23;;;;;;;15.44;70.03;100538.91;685847;28;1781;-83
2023/08/29 00:36:08;;;;;;;17.67;13.88;;;;;;;15.44;70.15;100538.91;686356;28;1147;-83
2023/08/29 00:36:29;;;;;;;17.98;14.07;;;;;;;15.44;70.24;100547.66;685123;28;1082;-84
2023/08/29 00:36:51;;;;;;;14.93;13.20;;;;;;;15.44;70.18;100542.38;683864;28;1723;-84
2023/08/29 00:37:12;;;;;;;13.60;12.20;;;;;;;15.44;70.20;100542.38;686538;28;1210;-84
2023/08/29 00:37:33;;;;;;;12.90;11.60;;;;;;;15.44;70.10;100547.66;684558;28;1202;-84
2023/08/29 00:37:55;;;;;;;14.98;12.07;;;;;;;15.44;70.04;100541.53;681999;29;1574;-84
2023/08/29 00:38:18;;;;;;;16.02;11.77;;;;;;;15.45;70.19;100543.28;687243;28;1443;-84
2023/08/29 00:38:39;;;;;;;16.98;11.90;;;;;;;15.42;70.12;100535.41;687544;28;1313;-84
2023/08/29 00:39:00;;;;;;;14.60;11.65;;;;;;;15.44;70.12;100539.75;687358;28;978;-84
2023/08/29 00:39:21;;;;;;;12.90;11.60;;;;;;;15.42;70.24;100536.25;685053;28;1227;-84
2023/08/29 00:39:42;;;;;;;13.45;12.15;;;;;;;15.44;70.24;100537.13;684883;28;1143;-84
2023/08/29 00:40:03;;;;;;;14.00;12.63;;;;;;;15.41;70.31;100533.59;684471;28;1266;-85
2023/08/29 00:40:31;;;;;;;14.18;12.77;;;;;;;15.43;70.37;100542.41;682486;28;1531;-84
2023/08/29 00:40:52;;;;;;;13.48;12.18;;;;;;;15.43;70.09;100535.38;682355;29;1128;-84
2023/08/29 00:41:12;;;;;;;12.97;11.67;;;;;;;15.40;70.05;100529.22;684768;28;1242;-84
2023/08/29 00:41:33;;;;;;;12.43;11.23;;;;;;;15.41;70.18;100529.25;685171;28;1128;-84
2023/08/29 00:41:54;;;;;;;12.57;11.30;;;;;;;15.42;70.37;100530.13;679694;29;1401;-84
2023/08/29 00:42:15;;;;;;;13.38;12.07;;;;;;;15.39;70.28;100522.22;682234;29;1237;-86
2023/08/29 00:42:36;;;;;;;14.43;12.93;;;;;;;15.45;70.38;100532.75;682185;29;1081;-85
2023/08/29 00:43:01;;;;;;;14.65;13.15;;;;;;;15.46;70.43;100529.25;684221;28;1209;-84
2023/08/29 00:43:22;;;;;;;15.00;13.40;;;;;;;15.41;70.42;100518.72;682436;28;1399;-84
2023/08/29 00:43:43;;;;;;;15.17;13.67;;;;;;;15.44;70.45;100523.13;684683;28;1220;-84
2023/08/29 00:44:06;;;;;;;15.90;14.30;;;;;;;15.47;70.43;100523.13;687393;28;1206;-84
2023/08/29 00:44:26;;;;;;;15.88;14.27;;;;;;;15.46;70.46;100518.72;683265;28;1891;-84
2023/08/29 00:44:47;;;;;;;16.00;14.40;;;;;;;15.44;70.65;100529.25;682047;28;1129;-85
2023/08/29 00:45:08;;;;;;;15.00;13.60;;;;;;;15.50;70.62;100528.41;684119;28;1129;-85
2023/08/29 00:45:31;;;;;;;14.55;13.07;;;;;;;15.50;70.51;100523.16;684556;28;1802;-84
2023/08/29 00:45:52;;;;;;;14.57;13.05;;;;;;;15.52;70.68;100531.91;684673;28;1114;-84
2023/08/29 00:46:14;;;;;;;14.70;13.10;;;;;;;15.56;70.34;100538.94;684771;28;1084;-84
2023/08/29 00:46:35;;;;;;;14.68;13.27;;;;;;;15.60;70.26;100540.72;683873;28;1507;-84
2023/08/29 00:46:56;;;;;;;14.88;13.38;;;;;;;15.59;70.28;100538.06;684787;28;1224;-84
2023/08/29 00:47:17;;;;;;;14.68;13.07;;;;;;;15.57;70.21;100539.81;686606;28;1278;-84
2023/08/29 00:47:38;;;;;;;13.97;12.57;;;;;;;15.61;69.98;100542.47;686577;28;1648;-84
2023/08/29 00:48:00;;;;;;;14.23;12.82;;;;;;;15.62;70.02;100549.47;682157;29;1006;-83
2023/08/29 00:48:21;;;;;;;13.75;12.55;;;;;;;15.58;70.15;100547.72;679889;29;1109;-84
2023/08/29 00:48:43;;;;;;;12.75;11.65;;;;;;;15.62;70.26;100560.00;679825;29;1138;-84
2023/08/29 00:49:03;;;;;;;12.25;11.15;;;;;;;15.57;70.09;100539.81;679817;29;1247;-85
2023/08/29 00:49:26;;;;;;;13.02;11.73;;;;;;;15.60;70.16;100556.50;690465;28;1373;-84
2023/08/29 00:49:47;;;;;;;14.38;12.88;;;;;;;15.57;70.07;100547.72;690477;28;1036;-84
2023/08/29 00:50:08;;;;;;;14.23;12.73;;;;;;;15.58;69.94;100550.34;681866;28;1869;-84
2023/08/29 00:50:30;;;;;;;15.07;12.20;;;;;;;15.57;70.09;100542.44;682597;28;1266;-84
2023/08/29 00:50:51;;;;;;;15.07;12.30;;;;;;;15.56;69.93;100538.06;681481;28;1067;-84
2023/08/29 00:51:12;;;;;;;15.77;12.65;;;;;;;15.55;70.10;100538.94;684042;28;1822;-84
2023/08/29 00:51:32;;;;;;;14.43;12.45;;;;;;;15.56;70.15;100544.19;685159;28;1291;-84
2023/08/29 00:51:54;;;;;;;13.87;12.00;;;;;;;15.58;70.01;100542.47;682316;29;1175;-85
2023/08/29 00:52:15;;;;;;;13.98;11.40;;;;;;;15.54;70.03;100538.06;678071;29;1471;-84
2023/08/29 00:52:36;;;;;;;15.63;10.73;;;;;;;15.53;70.13;100544.19;682646;28;1254;-84
2023/08/29 00:53:00;;;;;;;15.48;10.70;;;;;;;15.52;69.93;100537.19;682182;29;1200;-85
2023/08/29 00:53:21;;;;;;;14.90;10.80;;;;;;;15.49;70.09;100531.91;681319;29;1562;-84
2023/08/29 00:53:42;;;;;;;11.93;10.73;;;;;;;15.49;70.23;100526.66;682317;28;1243;-84
2023/08/29 00:54:03;;;;;;;11.32;10.23;;;;;;;15.53;70.00;100538.03;682180;28;1218;-85
2023/08/29 00:54:24;;;;;;;11.13;10.13;;;;;;;15.50;70.11;100533.66;687377;28;1393;-85
2023/08/29 00:54:45;;;;;;;11.35;10.25;;;;;;;15.47;70.25;100523.13;685190;28;950;-84
2023/08/29 00:55:08;;;;;;;11.65;10.55;;;;;;;15.51;70.27;100539.78;684873;28;1135;-84
2023/08/29 00:55:30;;;;;;;11.70;10.50;;;;;;;15.47;70.35;100533.63;682124;28;1522;-84
2023/08/29 00:55:51;;;;;;;14.02;11.05;;;;;;;15.46;70.26;100529.25;681614;29;1270;-83
2023/08/29 00:56:17;;;;;;;13.02;11.35;;;;;;;15.48;70.37;100535.38;686861;28;1251;-84
2023/08/29 00:56:38;;;;;;;12.98;11.70;;;;;;;15.45;70.17;100532.75;684805;28;1785;-84
2023/08/29 00:56:59;;;;;;;12.60;11.40;;;;;;;15.42;70.31;100522.25;682295;29;1447;-84
2023/08/29 00:57:20;;;;;;;13.10;11.68;;;;;;;15.44;70.29;100533.63;687480;28;1324;-84
2023/08/29 00:57:41;;;;;;;12.93;11.52;;;;;;;15.43;70.50;100529.25;684734;28;1451;-84
2023/08/29 00:58:03;;;;;;;12.80;11.50;;;;;;;15.47;70.29;100538.91;682312;28;1141;-85
2023/08/29 00:58:23;;;;;;;14.60;10.95;;;;;;;15.42;70.45;100535.41;685343;28;1022;-84
2023/08/29 00:58:44;;;;;;;14.67;10.80;;;;;;;15.46;70.40;100542.41;680830;29;822;-85
2023/08/29 00:59:05;;;;;;;14.23;10.80;;;;;;;15.41;70.26;100533.59;684671;28;1206;-85
2023/08/29 00:59:25;;;;;;;11.90;10.70;;;;;;;15.42;70.28;100536.25;690517;28;1211;-84
2023/08/29 00:59:47;;;;;;;12.13;10.77;;;;;;;15.44;70.35;100544.16;682774;28;1707;-84
2023/08/29 01:00:11;;;;;;;11.88;10.57;;;;;;;15.46;70.45;100552.91;679525;29;1376;-84
2023/08/29 01:00:55;;;;;;;11.35;10.25;;;;;;;15.44;70.39;100550.28;679360;29;1198;-85
2023/08/29 01:01:17;;;;;;;10.50;9.38;;;;;;;15.40;70.54;100545.88;684160;28;1298;-84
2023/08/29 01:01:38;;;;;;;12.20;9.90;;;;;;;15.40;70.39;100548.53;685088;28;1373;-85
2023/08/29 01:01:58;;;;;;;12.75;10.55;;;;;;;15.37;70.93;100547.63;687180;28;1709;-84
2023/08/29 01:02:19;;;;;;;12.45;10.80;;;;;;;15.38;70.71;100546.75;689402;28;1254;-84
2023/08/29 01:02:40;;;;;;;11.63;10.43;;;;;;;15.38;70.82;100538.88;685070;28;1562;-84
2023/08/29 01:03:02;;;;;;;11.35;10.20;;;;;;;15.39;70.56;100541.50;686475;28;1425;-84
2023/08/29 01:03:24;;;;;;;11.32;10.20;;;;;;;15.39;70.68;100544.13;686761;28;1485;-84
2023/08/29 01:03:45;;;;;;;12.10;10.80;;;;;;;15.39;70.73;100546.78;682800;28;1361;-84
2023/08/29 01:04:09;;;;;;;12.95;11.40;;;;;;;15.41;70.83;100550.28;687369;28;1344;-84
2023/08/29 01:04:30;;;;;;;12.52;11.23;;;;;;;15.39;70.66;100538.88;684548;28;1977;-84
2023/08/29 01:04:51;;;;;;;12.27;11.00;;;;;;;15.38;70.53;100549.38;688171;28;1414;-84
2023/08/29 01:05:12;;;;;;;11.88;10.68;;;;;;;15.36;70.58;100546.72;691642;28;1353;-84
2023/08/29 01:05:33;;;;;;;11.70;10.50;;;;;;;15.38;70.60;100541.50;689670;28;1455;-84
2023/08/29 01:05:54;;;;;;;11.82;10.63;;;;;;;15.39;70.54;100545.88;690754;28;1304;-84
2023/08/29 01:06:15;;;;;;;11.87;10.70;;;;;;;15.37;70.59;100545.00;690835;28;1159;-84
2023/08/29 01:06:37;;;;;;;12.50;11.30;;;;;;;15.41;70.33;100555.53;687384;28;1228;-84
2023/08/29 01:06:58;;;;;;;13.25;11.95;;;;;;;15.37;70.44;100543.25;685453;28;1424;-84
2023/08/29 01:07:19;;;;;;;13.43;12.13;;;;;;;15.34;70.51;100545.84;682747;28;1434;-84
2023/08/29 01:07:40;;;;;;;12.90;11.70;;;;;;;15.39;70.49;100552.03;682750;29;1848;-84
2023/08/29 01:08:02;;;;;;;13.15;11.85;;;;;;;15.39;70.41;100551.13;682776;29;1096;-84
2023/08/29 01:08:23;;;;;;;13.02;11.73;;;;;;;15.38;70.40;100550.28;685842;28;1168;-84
2023/08/29 01:08:44;;;;;;;13.43;12.10;;;;;;;15.38;70.46;100549.38;684135;28;1403;-84
2023/08/29 01:09:08;;;;;;;13.77;12.38;;;;;;;15.41;70.47;100554.63;685882;28;1367;-84
2023/08/29 01:09:30;;;;;;;13.77;12.48;;;;;;;15.40;70.44;100555.53;680186;29;1278;-84
2023/08/29 01:09:51;;;;;;;13.32;12.05;;;;;;;15.38;70.43;100555.53;685056;28;1225;-85
2023/08/29 01:10:12;;;;;;;12.55;11.35;;;;;;;15.34;70.50;100549.38;685476;28;1207;-84
2023/08/29 01:10:51;;;;;;;12.30;10.97;;;;;;;15.40;70.50;100550.25;682902;29;1090;-84
2023/08/29 01:11:37;;;;;;;11.98;10.77;;;;;;;15.40;70.58;100553.78;686823;28;1050;-84
2023/08/29 01:12:19;;;;;;;12.13;10.85;;;;;;;15.37;70.59;100552.88;688444;28;1463;-83
2023/08/29 01:13:00;;;;;;;13.50;11.23;;;;;;;15.34;70.56;100544.13;685536;28;1055;-84
2023/08/29 01:13:26;;;;;;;12.15;10.95;;;;;;;15.31;70.66;100541.47;685125;28;1207;-84
2023/08/29 01:14:05;;;;;;;11.48;10.38;;;;;;;15.37;70.65;100545.88;687472;28;1332;-84
2023/08/29 01:14:32;;;;;;;12.30;11.00;;;;;;;15.33;70.61;100552.88;685713;28;1098;-84
2023/08/29 01:15:03;;;;;;;14.77;11.30;;;;;;;15.33;70.64;100541.47;688167;28;1269;-87
2023/08/29 01:15:31;;;;;;;14.57;10.95;;;;;;;15.36;70.78;100546.72;682897;29;1217;-86
2023/08/29 01:15:54;;;;;;;12.50;11.00;;;;;;;15.33;70.60;100537.09;683693;28;1293;-84
2023/08/29 01:16:19;;;;;;;12.45;10.55;;;;;;;15.30;70.74;100539.72;689636;28;1536;-84
2023/08/29 01:16:47;;;;;;;13.50;11.25;;;;;;;15.32;70.34;100545.84;685642;28;1050;-87
2023/08/29 01:17:34;;;;;;;13.88;11.90;;;;;;;15.33;70.49;100552.00;686872;28;1266;-84
2023/08/29 01:18:00;;;;;;;13.38;11.98;;;;;;;15.33;70.72;100552.00;682752;28;1055;-85
2023/08/29 01:18:23;;;;;;;13.20;11.85;;;;;;;15.33;70.68;100554.63;684827;28;1387;-84
2023/08/29 01:18:46;;;;;;;13.32;11.93;;;;;;;15.31;70.57;100546.72;682704;28;1365;-84
2023/08/29 01:19:15;;;;;;;13.52;12.13;;;;;;;15.31;70.63;100549.34;687115;28;1478;-83
2023/08/29 01:19:42;;;;;;;13.15;11.90;;;;;;;15.35;70.77;100558.13;688008;28;1839;-84
2023/08/29 01:20:05;;;;;;;12.63;11.50;;;;;;;15.29;70.59;100545.84;683361;28;1242;-84
2023/08/29 01:20:29;;;;;;;12.05;11.05;;;;;;;15.32;70.69;100552.88;685646;28;1073;-87
2023/08/29 01:20:59;;;;;;;12.60;11.40;;;;;;;15.32;70.61;100558.13;682974;28;1188;-86
2023/08/29 01:21:36;;;;;;;14.15;11.77;;;;;;;15.29;70.69;100553.72;682947;29;1084;-84
2023/08/29 01:22:24;;;;;;;15.18;12.00;;;;;;;15.31;70.67;100562.50;684521;28;1076;-85
2023/08/29 01:23:08;;;;;;;13.73;11.90;;;;;;;15.30;70.77;100562.50;688150;28;1338;-84
2023/08/29 01:23:35;;;;;;;13.27;11.88;;;;;;;15.29;70.60;100556.34;685161;28;1758;-84
2023/08/29 01:24:25;;;;;;;12.63;11.40;;;;;;;15.25;70.52;100551.97;685397;28;1210;-84
2023/08/29 01:24:52;;;;;;;13.65;11.60;;;;;;;15.23;70.53;100556.31;680400;29;931;-84
2023/08/29 01:25:33;;;;;;;13.00;11.48;;;;;;;15.23;70.76;100551.06;684389;28;1115;-84
2023/08/29 01:26:11;;;;;;;13.02;11.00;;;;;;;15.25;70.65;100554.59;690493;28;994;-83
2023/08/29 01:26:33;;;;;;;12.70;11.40;;;;;;;15.23;70.84;100547.56;686106;28;1258;-86
2023/08/29 01:26:55;;;;;;;13.07;11.70;;;;;;;15.26;70.88;100550.19;688083;28;1069;-87
2023/08/29 01:27:18;;;;;;;13.07;11.73;;;;;;;15.19;70.85;100544.00;686082;28;1879;-87
2023/08/29 01:27:39;;;;;;;13.25;11.85;;;;;;;15.20;70.67;100545.75;682756;28;1306;-84
2023/08/29 01:28:01;;;;;;;12.98;11.57;;;;;;;15.19;70.73;100546.63;682610;28;1439;-84
2023/08/29 01:28:23;;;;;;;12.35;11.10;;;;;;;15.19;70.72;100546.63;683355;28;1477;-84
2023/08/29 01:28:45;;;;;;;11.95;10.65;;;;;;;15.19;70.66;100538.75;682926;28;1185;-84
2023/08/29 01:29:06;;;;;;;12.10;10.90;;;;;;;15.21;70.80;100547.56;684889;28;1366;-85
2023/08/29 01:29:31;;;;;;;12.30;11.10;;;;;;;15.18;70.85;100544.88;682547;28;1431;-83
2023/08/29 01:29:53;;;;;;;11.98;10.82;;;;;;;15.24;70.79;100546.69;679508;28;1303;-84
2023/08/29 01:30:15;;;;;;;12.60;11.30;;;;;;;15.21;70.80;100552.81;684302;28;1192;-84
2023/08/29 01:30:38;;;;;;;12.65;11.35;;;;;;;15.22;70.76;100549.31;684422;28;1532;-84
2023/08/29 01:30:59;;;;;;;13.00;11.75;;;;;;;15.20;70.78;100545.75;685365;28;1090;-84
2023/08/29 01:31:21;;;;;;;12.73;11.52;;;;;;;15.15;70.92;100539.59;685513;28;1112;-84
2023/08/29 01:31:41;;;;;;;12.80;11.65;;;;;;;15.17;70.69;100545.72;688085;28;1523;-84
2023/08/29 01:32:03;;;;;;;12.52;11.23;;;;;;;15.16;70.86;100550.13;685137;28;1375;-86
2023/08/29 01:32:25;;;;;;;12.05;10.75;;;;;;;15.16;70.80;100547.50;685672;28;1560;-87
2023/08/29 01:32:46;;;;;;;13.07;11.07;;;;;;;15.15;70.74;100551.00;680419;29;887;-84
2023/08/29 01:33:07;;;;;;;12.40;11.10;;;;;;;15.14;70.65;100549.25;679035;29;1391;-85
2023/08/29 01:33:29;;;;;;;12.98;11.68;;;;;;;15.15;70.72;100555.38;681187;29;1324;-84
2023/08/29 01:33:50;;;;;;;12.50;11.30;;;;;;;15.16;70.89;100555.38;679963;29;1388;-84
2023/08/29 01:34:12;;;;;;;12.73;11.52;;;;;;;15.14;70.67;100551.88;681368;29;1176;-84
2023/08/29 01:34:44;;;;;;;11.88;10.80;;;;;;;15.20;70.77;100564.16;685502;28;1010;-84
2023/08/29 01:35:06;;;;;;;13.02;11.82;;;;;;;15.20;70.75;100566.78;680571;29;1158;-84
2023/08/29 01:35:27;;;;;;;13.30;12.00;;;;;;;15.15;70.81;100563.25;688185;28;1583;-83
2023/08/29 01:35:48;;;;;;;13.35;11.98;;;;;;;15.15;70.83;100558.00;686563;28;1401;-84
2023/08/29 01:36:08;;;;;;;12.82;11.45;;;;;;;15.17;70.90;100569.38;688876;28;1088;-84
2023/08/29 01:36:42;;;;;;;13.02;11.73;;;;;;;15.17;71.00;100572.91;685337;28;1279;-84
2023/08/29 01:37:03;;;;;;;13.88;12.48;;;;;;;15.18;70.78;100568.53;679998;29;1159;-85
2023/08/29 01:37:23;;;;;;;13.37;11.90;;;;;;;15.12;71.00;100558.00;685676;28;1149;-84
2023/08/29 01:37:44;;;;;;;12.60;11.27;;;;;;;15.18;70.84;100579.91;685710;28;1266;-85
2023/08/29 01:38:05;;;;;;;12.75;11.43;;;;;;;15.14;70.79;100562.38;684792;28;1424;-84
2023/08/29 01:38:26;;;;;;;12.97;11.77;;;;;;;15.19;70.79;100571.16;684389;28;1262;-84
2023/08/29 01:38:46;;;;;;;13.00;11.80;;;;;;;15.15;70.98;100560.63;680649;29;1258;-84
2023/08/29 01:39:08;;;;;;;11.90;10.80;;;;;;;15.21;70.88;100573.84;680293;29;1228;-84
2023/08/29 01:39:28;;;;;;;11.88;10.68;;;;;;;15.19;70.98;100567.66;684967;28;1471;-84
2023/08/29 01:39:49;;;;;;;11.93;10.73;;;;;;;15.16;71.01;100565.00;685393;28;1261;-84
2023/08/29 01:40:11;;;;;;;12.30;11.10;;;;;;;15.14;71.11;100561.50;687097;28;1406;-84
2023/08/29 01:40:32;;;;;;;12.37;11.17;;;;;;;15.20;70.97;100564.16;686258;28;1748;-84
2023/08/29 01:40:53;;;;;;;12.40;11.10;;;;;;;15.16;70.89;100560.63;683560;28;1504;-84
2023/08/29 01:41:13;;;;;;;12.03;10.80;;;;;;;15.20;70.88;100566.78;685215;28;1589;-84
2023/08/29 01:41:34;;;;;;;11.95;10.75;;;;;;;15.17;70.88;100564.13;685518;28;1015;-84
2023/08/29 01:41:55;;;;;;;13.57;10.77;;;;;;;15.19;70.90;100560.63;682762;29;1178;-85
2023/08/29 01:42:16;;;;;;;14.77;10.68;;;;;;;15.21;70.98;100565.94;682550;28;1285;-84
2023/08/29 01:42:36;;;;;;;14.52;10.20;;;;;;;15.19;70.99;100570.28;685252;28;1308;-84
2023/08/29 01:42:57;;;;;;;11.40;10.13;;;;;;;15.19;71.08;100571.16;685407;28;1114;-85
2023/08/29 01:43:17;;;;;;;11.90;10.80;;;;;;;15.20;70.93;100572.06;685106;28;1220;-84
2023/08/29 01:43:38;;;;;;;12.50;11.30;;;;;;;15.19;70.80;100567.66;682807;28;1014;-84
2023/08/29 01:44:03;;;;;;;13.13;11.73;;;;;;;15.24;70.89;100572.97;682755;29;1085;-84
2023/08/29 01:44:23;;;;;;;12.90;11.55;;;;;;;15.20;70.80;100572.91;683374;28;1907;-83
2023/08/29 01:44:44;;;;;;;13.00;11.43;;;;;;;15.22;70.99;100567.72;685338;28;1593;-84
2023/08/29 01:45:05;;;;;;;13.98;10.90;;;;;;;15.21;70.95;100571.22;679665;29;1317;-85
2023/08/29 01:45:26;;;;;;;13.80;10.50;;;;;;;15.21;70.95;100566.84;683474;28;1395;-84
2023/08/29 01:45:47;;;;;;;13.00;10.60;;;;;;;15.21;70.72;100560.69;684813;28;1283;-84